sensor_id;sensor_type;location;lat;lon;timestamp;pressure;altitude;pressure_sealevel;temperature
23992;BMP280;12205;50.600;4.608;2023-10-08T00:02:24;101130.38;;;17.32
23992;BMP280;12205;50.600;4.608;2023-10-08T00:04:52;101136.19;;;17.26
23992;BMP280;12205;50.600;4.608;2023-10-08T00:07:22;101135.78;;;17.24
23992;BMP280;12205;50.600;4.608;2023-10-08T00:09:50;101130.75;;;17.19
23992;BMP280;12205;50.600;4.608;2023-10-08T00:12:19;101138.84;;;17.16
23992;BMP280;12205;50.600;4.608;2023-10-08T00:14:46;101148.47;;;17.13
23992;BMP280;12205;50.600;4.608;2023-10-08T00:17:16;101143.81;;;17.10
23992;BMP280;12205;50.600;4.608;2023-10-08T00:19:44;101131.47;;;17.05
23992;BMP280;12205;50.600;4.608;2023-10-08T00:22:13;101121.38;;;16.99
23992;BMP280;12205;50.600;4.608;2023-10-08T00:24:45;101135.25;;;16.94
23992;BMP280;12205;50.600;4.608;2023-10-08T00:27:15;101143.72;;;16.92
23992;BMP280;12205;50.600;4.608;2023-10-08T00:29:43;101135.25;;;16.90
23992;BMP280;12205;50.600;4.608;2023-10-08T00:32:11;101130.22;;;16.88
23992;BMP280;12205;50.600;4.608;2023-10-08T00:34:43;101130.94;;;16.85
23992;BMP280;12205;50.600;4.608;2023-10-08T00:37:11;101122.06;;;16.81
23992;BMP280;12205;50.600;4.608;2023-10-08T00:39:40;101127.84;;;16.76
23992;BMP280;12205;50.600;4.608;2023-10-08T00:42:10;101123.19;;;16.73
23992;BMP280;12205;50.600;4.608;2023-10-08T00:44:39;101120.44;;;16.69
23992;BMP280;12205;50.600;4.608;2023-10-08T00:47:15;101123.13;;;16.66
23992;BMP280;12205;50.600;4.608;2023-10-08T00:49:46;101121.56;;;16.61
23992;BMP280;12205;50.600;4.608;2023-10-08T00:52:33;101118.84;;;16.58
23992;BMP280;12205;50.600;4.608;2023-10-08T00:55:09;101114.97;;;16.51
23992;BMP280;12205;50.600;4.608;2023-10-08T00:57:42;101113.38;;;16.47
23992;BMP280;12205;50.600;4.608;2023-10-08T01:00:14;101121.06;;;16.45
23992;BMP280;12205;50.600;4.608;2023-10-08T01:02:49;101117.97;;;16.39
23992;BMP280;12205;50.600;4.608;2023-10-08T01:05:21;101123.28;;;16.32
23992;BMP280;12205;50.600;4.608;2023-10-08T01:07:53;101131.72;;;16.27
23992;BMP280;12205;50.600;4.608;2023-10-08T01:10:22;101141.72;;;16.23
23992;BMP280;12205;50.600;4.608;2023-10-08T01:12:52;101143.63;;;16.19
23992;BMP280;12205;50.600;4.608;2023-10-08T01:15:30;101143.19;;;16.13
23992;BMP280;12205;50.600;4.608;2023-10-08T01:18:02;101150.09;;;16.10
23992;BMP280;12205;50.600;4.608;2023-10-08T01:20:31;101150.06;;;16.07
23992;BMP280;12205;50.600;4.608;2023-10-08T01:23:05;101148.47;;;16.02
23992;BMP280;12205;50.600;4.608;2023-10-08T01:25:37;101147.69;;;15.98
23992;BMP280;12205;50.600;4.608;2023-10-08T01:28:05;101143.03;;;15.95
23992;BMP280;12205;50.600;4.608;2023-10-08T01:30:41;101136.03;;;15.87
23992;BMP280;12205;50.600;4.608;2023-10-08T01:33:12;101141.75;;;15.82
23992;BMP280;12205;50.600;4.608;2023-10-08T01:35:41;101145.94;;;15.79
23992;BMP280;12205;50.600;4.608;2023-10-08T01:38:10;101144.34;;;15.74
23992;BMP280;12205;50.600;4.608;2023-10-08T01:40:40;101146.63;;;15.69
23992;BMP280;12205;50.600;4.608;2023-10-08T01:43:08;101147.31;;;15.66
23992;BMP280;12205;50.600;4.608;2023-10-08T01:45:36;101135.75;;;15.65
23992;BMP280;12205;50.600;4.608;2023-10-08T01:48:07;101139.56;;;15.61
23992;BMP280;12205;50.600;4.608;2023-10-08T01:50:37;101149.56;;;15.60
23992;BMP280;12205;50.600;4.608;2023-10-08T01:53:05;101141.09;;;15.58
23992;BMP280;12205;50.600;4.608;2023-10-08T01:55:37;101131.78;;;15.52
23992;BMP280;12205;50.600;4.608;2023-10-08T01:58:17;101135.19;;;15.49
23992;BMP280;12205;50.600;4.608;2023-10-08T02:00:45;101127.88;;;15.49
23992;BMP280;12205;50.600;4.608;2023-10-08T02:03:15;101135.19;;;15.49
23992;BMP280;12205;50.600;4.608;2023-10-08T02:05:44;101132.81;;;15.44
23992;BMP280;12205;50.600;4.608;2023-10-08T02:08:13;101135.47;;;15.37
23992;BMP280;12205;50.600;4.608;2023-10-08T02:10:43;101131.53;;;15.30
23992;BMP280;12205;50.600;4.608;2023-10-08T02:13:14;101123.81;;;15.29
23992;BMP280;12205;50.600;4.608;2023-10-08T02:15:45;101115.66;;;15.25
23992;BMP280;12205;50.600;4.608;2023-10-08T02:18:13;101120.66;;;15.23
23992;BMP280;12205;50.600;4.608;2023-10-08T02:20:40;101122.91;;;15.18
23992;BMP280;12205;50.600;4.608;2023-10-08T02:23:07;101115.16;;;15.16
23992;BMP280;12205;50.600;4.608;2023-10-08T02:25:38;101108.66;;;15.17
23992;BMP280;12205;50.600;4.608;2023-10-08T02:28:08;101109.03;;;15.19
23992;BMP280;12205;50.600;4.608;2023-10-08T02:30:38;101112.91;;;15.18
23992;BMP280;12205;50.600;4.608;2023-10-08T02:33:05;101112.06;;;15.14
23992;BMP280;12205;50.600;4.608;2023-10-08T02:35:40;101109.03;;;15.15
23992;BMP280;12205;50.600;4.608;2023-10-08T02:38:10;101108.22;;;15.15
23992;BMP280;12205;50.600;4.608;2023-10-08T02:40:39;101112.81;;;15.11
23992;BMP280;12205;50.600;4.608;2023-10-08T02:43:12;101103.59;;;15.12
23992;BMP280;12205;50.600;4.608;2023-10-08T02:45:41;101121.31;;;15.13
23992;BMP280;12205;50.600;4.608;2023-10-08T02:48:13;101120.47;;;15.09
23992;BMP280;12205;50.600;4.608;2023-10-08T02:50:42;101112.00;;;15.07
23992;BMP280;12205;50.600;4.608;2023-10-08T02:53:11;101110.00;;;15.04
23992;BMP280;12205;50.600;4.608;2023-10-08T02:55:43;101121.22;;;15.06
23992;BMP280;12205;50.600;4.608;2023-10-08T02:58:14;101118.53;;;15.06
23992;BMP280;12205;50.600;4.608;2023-10-08T03:00:42;101114.72;;;15.07
23992;BMP280;12205;50.600;4.608;2023-10-08T03:03:09;101108.13;;;15.04
23992;BMP280;12205;50.600;4.608;2023-10-08T03:05:44;101100.41;;;15.03
23992;BMP280;12205;50.600;4.608;2023-10-08T03:08:13;101094.91;;;14.95
23992;BMP280;12205;50.600;4.608;2023-10-08T03:10:45;101096.38;;;14.89
23992;BMP280;12205;50.600;4.608;2023-10-08T03:13:16;101099.78;;;14.86
23992;BMP280;12205;50.600;4.608;2023-10-08T03:15:45;101107.88;;;14.86
23992;BMP280;12205;50.600;4.608;2023-10-08T03:18:34;101125.16;;;14.85
23992;BMP280;12205;50.600;4.608;2023-10-08T03:21:03;101136.31;;;14.87
23992;BMP280;12205;50.600;4.608;2023-10-08T03:23:31;101141.78;;;14.91
23992;BMP280;12205;50.600;4.608;2023-10-08T03:26:02;101137.59;;;14.93
23992;BMP280;12205;50.600;4.608;2023-10-08T03:28:39;101136.47;;;14.94
23992;BMP280;12205;50.600;4.608;2023-10-08T03:31:07;101144.91;;;14.96
23992;BMP280;12205;50.600;4.608;2023-10-08T03:33:43;101144.91;;;14.96
23992;BMP280;12205;50.600;4.608;2023-10-08T03:36:15;101138.00;;;14.95
23992;BMP280;12205;50.600;4.608;2023-10-08T03:38:46;101142.97;;;14.93
23992;BMP280;12205;50.600;4.608;2023-10-08T03:41:18;101145.63;;;14.90
23992;BMP280;12205;50.600;4.608;2023-10-08T03:43:54;101132.50;;;14.88
23992;BMP280;12205;50.600;4.608;2023-10-08T03:46:28;101138.63;;;14.85
23992;BMP280;12205;50.600;4.608;2023-10-08T03:48:56;101130.13;;;14.83
23992;BMP280;12205;50.600;4.608;2023-10-08T03:51:24;101133.97;;;14.82
23992;BMP280;12205;50.600;4.608;2023-10-08T03:53:53;101140.84;;;14.80
23992;BMP280;12205;50.600;4.608;2023-10-08T03:56:43;101146.19;;;14.76
23992;BMP280;12205;50.600;4.608;2023-10-08T03:59:15;101141.50;;;14.73
23992;BMP280;12205;50.600;4.608;2023-10-08T04:01:57;101149.97;;;14.71
23992;BMP280;12205;50.600;4.608;2023-10-08T04:04:26;101142.25;;;14.70
23992;BMP280;12205;50.600;4.608;2023-10-08T04:07:16;101140.25;;;14.67
23992;BMP280;12205;50.600;4.608;2023-10-08T04:09:55;101135.97;;;14.62
23992;BMP280;12205;50.600;4.608;2023-10-08T04:12:35;101135.91;;;14.58
23992;BMP280;12205;50.600;4.608;2023-10-08T04:15:11;101130.47;;;14.55
23992;BMP280;12205;50.600;4.608;2023-10-08T04:17:40;101135.03;;;14.51
23992;BMP280;12205;50.600;4.608;2023-10-08T04:20:13;101137.66;;;14.47
23992;BMP280;12205;50.600;4.608;2023-10-08T04:22:57;101135.69;;;14.44
23992;BMP280;12205;50.600;4.608;2023-10-08T04:25:25;101134.84;;;14.40
23992;BMP280;12205;50.600;4.608;2023-10-08T04:27:54;101150.13;;;14.36
23992;BMP280;12205;50.600;4.608;2023-10-08T04:30:26;101142.38;;;14.31
23992;BMP280;12205;50.600;4.608;2023-10-08T04:32:59;101138.84;;;14.27
23992;BMP280;12205;50.600;4.608;2023-10-08T04:35:33;101142.25;;;14.24
23992;BMP280;12205;50.600;4.608;2023-10-08T04:38:03;101141.41;;;14.19
23992;BMP280;12205;50.600;4.608;2023-10-08T04:40:34;101144.38;;;14.14
23992;BMP280;12205;50.600;4.608;2023-10-08T04:43:08;101153.97;;;14.12
23992;BMP280;12205;50.600;4.608;2023-10-08T04:45:38;101150.09;;;14.09
23992;BMP280;12205;50.600;4.608;2023-10-08T04:48:05;101144.25;;;14.07
23992;BMP280;12205;50.600;4.608;2023-10-08T04:50:36;101148.06;;;14.06
23992;BMP280;12205;50.600;4.608;2023-10-08T04:53:03;101155.72;;;14.04
23992;BMP280;12205;50.600;4.608;2023-10-08T04:55:34;101158.00;;;14.02
23992;BMP280;12205;50.600;4.608;2023-10-08T04:58:07;101165.28;;;14.01
23992;BMP280;12205;50.600;4.608;2023-10-08T05:00:46;101171.03;;;14.00
23992;BMP280;12205;50.600;4.608;2023-10-08T05:03:20;101165.19;;;13.98
23992;BMP280;12205;50.600;4.608;2023-10-08T05:05:49;101167.16;;;13.97
23992;BMP280;12205;50.600;4.608;2023-10-08T05:08:33;101170.19;;;13.96
23992;BMP280;12205;50.600;4.608;2023-10-08T05:11:13;101167.06;;;13.94
23992;BMP280;12205;50.600;4.608;2023-10-08T05:14:11;101167.84;;;13.94
23992;BMP280;12205;50.600;4.608;2023-10-08T05:16:56;101176.28;;;13.93
23992;BMP280;12205;50.600;4.608;2023-10-08T05:19:26;101173.94;;;13.91
23992;BMP280;12205;50.600;4.608;2023-10-08T05:22:15;101174.69;;;13.92
23992;BMP280;12205;50.600;4.608;2023-10-08T05:25:08;101168.56;;;13.91
23992;BMP280;12205;50.600;4.608;2023-10-08T05:27:53;101173.16;;;13.91
23992;BMP280;12205;50.600;4.608;2023-10-08T05:30:25;101170.06;;;13.89
23992;BMP280;12205;50.600;4.608;2023-10-08T05:32:56;101164.69;;;13.89
23992;BMP280;12205;50.600;4.608;2023-10-08T05:35:32;101170.41;;;13.87
23992;BMP280;12205;50.600;4.608;2023-10-08T05:38:21;101166.16;;;13.86
23992;BMP280;12205;50.600;4.608;2023-10-08T05:41:06;101169.59;;;13.87
23992;BMP280;12205;50.600;4.608;2023-10-08T05:43:59;101161.16;;;13.85
23992;BMP280;12205;50.600;4.608;2023-10-08T05:46:50;101165.31;;;13.82
23992;BMP280;12205;50.600;4.608;2023-10-08T05:49:44;101163.31;;;13.79
23992;BMP280;12205;50.600;4.608;2023-10-08T05:52:40;101162.13;;;13.76
23992;BMP280;12205;50.600;4.608;2023-10-08T05:55:16;101159.00;;;13.74
23992;BMP280;12205;50.600;4.608;2023-10-08T05:57:52;101160.91;;;13.74
23992;BMP280;12205;50.600;4.608;2023-10-08T06:00:28;101165.53;;;13.73
23992;BMP280;12205;50.600;4.608;2023-10-08T06:03:28;101170.47;;;13.71
23992;BMP280;12205;50.600;4.608;2023-10-08T06:06:13;101165.47;;;13.70
23992;BMP280;12205;50.600;4.608;2023-10-08T06:09:03;101172.75;;;13.69
23992;BMP280;12205;50.600;4.608;2023-10-08T06:11:48;101181.94;;;13.68
23992;BMP280;12205;50.600;4.608;2023-10-08T06:14:34;101180.34;;;13.67
23992;BMP280;12205;50.600;4.608;2023-10-08T06:17:34;101183.03;;;13.67
23992;BMP280;12205;50.600;4.608;2023-10-08T06:20:11;101178.13;;;13.69
23992;BMP280;12205;50.600;4.608;2023-10-08T06:22:44;101179.66;;;13.70
23992;BMP280;12205;50.600;4.608;2023-10-08T06:25:11;101172.03;;;13.72
23992;BMP280;12205;50.600;4.608;2023-10-08T06:27:49;101175.94;;;13.75
23992;BMP280;12205;50.600;4.608;2023-10-08T06:30:20;101173.72;;;13.80
23992;BMP280;12205;50.600;4.608;2023-10-08T06:32:47;101181.47;;;13.86
23992;BMP280;12205;50.600;4.608;2023-10-08T06:35:16;101184.69;;;13.91
23992;BMP280;12205;50.600;4.608;2023-10-08T06:37:46;101180.94;;;13.96
23992;BMP280;12205;50.600;4.608;2023-10-08T06:40:15;101188.75;;;14.05
23992;BMP280;12205;50.600;4.608;2023-10-08T06:43:13;101188.56;;;14.13
23992;BMP280;12205;50.600;4.608;2023-10-08T06:45:48;101169.88;;;14.20
23992;BMP280;12205;50.600;4.608;2023-10-08T06:48:19;101181.94;;;14.30
23992;BMP280;12205;50.600;4.608;2023-10-08T06:50:48;101197.16;;;14.42
23992;BMP280;12205;50.600;4.608;2023-10-08T06:53:17;101191.19;;;14.52
23992;BMP280;12205;50.600;4.608;2023-10-08T06:55:45;101181.34;;;14.64
23992;BMP280;12205;50.600;4.608;2023-10-08T06:58:15;101189.94;;;14.73
23992;BMP280;12205;50.600;4.608;2023-10-08T07:00:43;101196.28;;;14.84
23992;BMP280;12205;50.600;4.608;2023-10-08T07:03:15;101194.13;;;14.93
23992;BMP280;12205;50.600;4.608;2023-10-08T07:05:45;101206.53;;;15.02
23992;BMP280;12205;50.600;4.608;2023-10-08T07:08:21;101209.03;;;15.14
23992;BMP280;12205;50.600;4.608;2023-10-08T07:10:49;101219.59;;;15.26
23992;BMP280;12205;50.600;4.608;2023-10-08T07:13:19;101230.19;;;15.39
23992;BMP280;12205;50.600;4.608;2023-10-08T07:15:48;101224.91;;;15.49
23992;BMP280;12205;50.600;4.608;2023-10-08T07:18:16;101222.78;;;15.66
23992;BMP280;12205;50.600;4.608;2023-10-08T07:20:52;101224.88;;;15.76
23992;BMP280;12205;50.600;4.608;2023-10-08T07:23:28;101213.03;;;15.88
23992;BMP280;12205;50.600;4.608;2023-10-08T07:25:57;101228.59;;;15.98
23992;BMP280;12205;50.600;4.608;2023-10-08T07:28:39;101227.91;;;16.08
23992;BMP280;12205;50.600;4.608;2023-10-08T07:31:12;101221.88;;;16.19
23992;BMP280;12205;50.600;4.608;2023-10-08T07:33:41;101214.25;;;16.28
23992;BMP280;12205;50.600;4.608;2023-10-08T07:36:10;101213.50;;;16.35
23992;BMP280;12205;50.600;4.608;2023-10-08T07:38:40;101207.34;;;16.34
23992;BMP280;12205;50.600;4.608;2023-10-08T07:41:08;101213.50;;;16.31
23992;BMP280;12205;50.600;4.608;2023-10-08T07:43:40;101203.34;;;16.21
23992;BMP280;12205;50.600;4.608;2023-10-08T07:46:08;101210.38;;;16.29
23992;BMP280;12205;50.600;4.608;2023-10-08T07:48:36;101205.09;;;16.36
23992;BMP280;12205;50.600;4.608;2023-10-08T07:51:08;101217.47;;;16.44
23992;BMP280;12205;50.600;4.608;2023-10-08T07:53:35;101211.38;;;16.55
23992;BMP280;12205;50.600;4.608;2023-10-08T07:56:05;101213.75;;;16.63
23992;BMP280;12205;50.600;4.608;2023-10-08T07:58:34;101219.25;;;16.74
23992;BMP280;12205;50.600;4.608;2023-10-08T08:01:07;101226.31;;;16.89
23992;BMP280;12205;50.600;4.608;2023-10-08T08:03:36;101226.41;;;17.04
23992;BMP280;12205;50.600;4.608;2023-10-08T08:06:04;101221.78;;;17.12
23992;BMP280;12205;50.600;4.608;2023-10-08T08:08:33;101222.63;;;17.19
23992;BMP280;12205;50.600;4.608;2023-10-08T08:11:02;101230.38;;;17.32
23992;BMP280;12205;50.600;4.608;2023-10-08T08:13:38;101235.88;;;17.46
23992;BMP280;12205;50.600;4.608;2023-10-08T08:16:11;101226.63;;;17.54
23992;BMP280;12205;50.600;4.608;2023-10-08T08:18:44;101231.31;;;17.64
23992;BMP280;12205;50.600;4.608;2023-10-08T08:21:12;101235.19;;;17.67
23992;BMP280;12205;50.600;4.608;2023-10-08T08:23:42;101239.06;;;17.73
23992;BMP280;12205;50.600;4.608;2023-10-08T08:26:17;101235.25;;;17.85
23992;BMP280;12205;50.600;4.608;2023-10-08T08:28:59;101236.41;;;17.98
23992;BMP280;12205;50.600;4.608;2023-10-08T08:31:33;101225.22;;;18.03
23992;BMP280;12205;50.600;4.608;2023-10-08T08:34:06;101234.94;;;18.15
23992;BMP280;12205;50.600;4.608;2023-10-08T08:36:40;101236.06;;;18.21
23992;BMP280;12205;50.600;4.608;2023-10-08T08:39:15;101232.22;;;18.30
23992;BMP280;12205;50.600;4.608;2023-10-08T08:41:59;101240.75;;;18.42
23992;BMP280;12205;50.600;4.608;2023-10-08T08:44:28;101233.78;;;18.49
23992;BMP280;12205;50.600;4.608;2023-10-08T08:47:01;101235.31;;;18.57
23992;BMP280;12205;50.600;4.608;2023-10-08T08:49:32;101230.69;;;18.64
23992;BMP280;12205;50.600;4.608;2023-10-08T08:52:01;101236.84;;;18.72
23992;BMP280;12205;50.600;4.608;2023-10-08T08:54:28;101235.31;;;18.78
23992;BMP280;12205;50.600;4.608;2023-10-08T08:56:57;101232.94;;;18.88
23992;BMP280;12205;50.600;4.608;2023-10-08T08:59:26;101238.38;;;18.95
23992;BMP280;12205;50.600;4.608;2023-10-08T09:01:57;101233.69;;;19.06
23992;BMP280;12205;50.600;4.608;2023-10-08T09:04:31;101240.63;;;19.14
23992;BMP280;12205;50.600;4.608;2023-10-08T09:06:59;101229.00;;;19.17
23992;BMP280;12205;50.600;4.608;2023-10-08T09:09:34;101224.31;;;19.29
23992;BMP280;12205;50.600;4.608;2023-10-08T09:12:06;101223.84;;;19.41
23992;BMP280;12205;50.600;4.608;2023-10-08T09:14:37;101235.81;;;19.54
23992;BMP280;12205;50.600;4.608;2023-10-08T09:17:05;101231.94;;;19.55
23992;BMP280;12205;50.600;4.608;2023-10-08T09:19:38;101229.19;;;19.62
23992;BMP280;12205;50.600;4.608;2023-10-08T09:22:07;101233.44;;;19.63
23992;BMP280;12205;50.600;4.608;2023-10-08T09:24:38;101239.59;;;19.75
23992;BMP280;12205;50.600;4.608;2023-10-08T09:27:07;101240.28;;;19.90
23992;BMP280;12205;50.600;4.608;2023-10-08T09:29:35;101239.41;;;20.03
23992;BMP280;12205;50.600;4.608;2023-10-08T09:32:08;101239.28;;;20.18
23992;BMP280;12205;50.600;4.608;2023-10-08T09:34:37;101241.91;;;20.32
23992;BMP280;12205;50.600;4.608;2023-10-08T09:37:04;101243.00;;;20.38
23992;BMP280;12205;50.600;4.608;2023-10-08T09:39:31;101246.06;;;20.44
23992;BMP280;12205;50.600;4.608;2023-10-08T09:42:02;101239.78;;;20.47
23992;BMP280;12205;50.600;4.608;2023-10-08T09:44:30;101243.69;;;20.50
23992;BMP280;12205;50.600;4.608;2023-10-08T09:47:03;101232.00;;;20.53
23992;BMP280;12205;50.600;4.608;2023-10-08T09:49:33;101229.22;;;20.60
23992;BMP280;12205;50.600;4.608;2023-10-08T09:52:07;101240.31;;;20.76
23992;BMP280;12205;50.600;4.608;2023-10-08T09:54:43;101237.06;;;20.89
23992;BMP280;12205;50.600;4.608;2023-10-08T09:57:11;101233.44;;;20.99
23992;BMP280;12205;50.600;4.608;2023-10-08T09:59:39;101232.56;;;21.09
23992;BMP280;12205;50.600;4.608;2023-10-08T10:02:07;101232.75;;;21.25
23992;BMP280;12205;50.600;4.608;2023-10-08T10:04:41;101232.59;;;21.36
23992;BMP280;12205;50.600;4.608;2023-10-08T10:07:12;101232.19;;;21.38
23992;BMP280;12205;50.600;4.608;2023-10-08T10:09:44;101228.25;;;21.42
23992;BMP280;12205;50.600;4.608;2023-10-08T10:12:17;101232.34;;;21.54
23992;BMP280;12205;50.600;4.608;2023-10-08T10:14:53;101221.63;;;21.71
23992;BMP280;12205;50.600;4.608;2023-10-08T10:17:25;101230.38;;;21.82
23992;BMP280;12205;50.600;4.608;2023-10-08T10:19:54;101232.38;;;21.78
23992;BMP280;12205;50.600;4.608;2023-10-08T10:22:33;101231.28;;;21.75
23992;BMP280;12205;50.600;4.608;2023-10-08T10:25:02;101238.19;;;21.80
23992;BMP280;12205;50.600;4.608;2023-10-08T10:27:42;101233.59;;;21.77
23992;BMP280;12205;50.600;4.608;2023-10-08T10:30:09;101246.25;;;21.87
23992;BMP280;12205;50.600;4.608;2023-10-08T10:32:38;101242.69;;;21.90
23992;BMP280;12205;50.600;4.608;2023-10-08T10:35:06;101237.44;;;21.79
23992;BMP280;12205;50.600;4.608;2023-10-08T10:37:39;101232.75;;;21.80
23992;BMP280;12205;50.600;4.608;2023-10-08T10:40:10;101244.41;;;21.80
23992;BMP280;12205;50.600;4.608;2023-10-08T10:42:39;101237.75;;;21.85
23992;BMP280;12205;50.600;4.608;2023-10-08T10:45:14;101233.47;;;21.84
23992;BMP280;12205;50.600;4.608;2023-10-08T10:48:01;101230.03;;;21.80
23992;BMP280;12205;50.600;4.608;2023-10-08T10:50:39;101242.81;;;21.83
23992;BMP280;12205;50.600;4.608;2023-10-08T10:53:18;101244.25;;;21.91
23992;BMP280;12205;50.600;4.608;2023-10-08T10:55:45;101245.06;;;21.92
23992;BMP280;12205;50.600;4.608;2023-10-08T10:58:25;101236.38;;;21.97
23992;BMP280;12205;50.600;4.608;2023-10-08T11:00:54;101239.34;;;22.06
23992;BMP280;12205;50.600;4.608;2023-10-08T11:03:25;101234.94;;;22.12
23992;BMP280;12205;50.600;4.608;2023-10-08T11:05:58;101236.88;;;22.15
23992;BMP280;12205;50.600;4.608;2023-10-08T11:08:33;101239.88;;;22.21
23992;BMP280;12205;50.600;4.608;2023-10-08T11:11:03;101233.34;;;22.38
23992;BMP280;12205;50.600;4.608;2023-10-08T11:13:35;101225.75;;;22.50
23992;BMP280;12205;50.600;4.608;2023-10-08T11:16:08;101216.16;;;22.41
23992;BMP280;12205;50.600;4.608;2023-10-08T11:18:44;101224.63;;;22.47
23992;BMP280;12205;50.600;4.608;2023-10-08T11:21:13;101219.03;;;22.54
23992;BMP280;12205;50.600;4.608;2023-10-08T11:23:51;101225.13;;;22.62
23992;BMP280;12205;50.600;4.608;2023-10-08T11:26:26;101219.09;;;22.51
23992;BMP280;12205;50.600;4.608;2023-10-08T11:28:59;101218.41;;;22.46
23992;BMP280;12205;50.600;4.608;2023-10-08T11:31:29;101210.28;;;22.63
23992;BMP280;12205;50.600;4.608;2023-10-08T11:34:01;101211.50;;;22.82
23992;BMP280;12205;50.600;4.608;2023-10-08T11:36:36;101206.34;;;23.04
23992;BMP280;12205;50.600;4.608;2023-10-08T11:39:15;101206.88;;;23.15
23992;BMP280;12205;50.600;4.608;2023-10-08T11:41:59;101199.72;;;23.21
23992;BMP280;12205;50.600;4.608;2023-10-08T11:44:30;101197.75;;;23.22
23992;BMP280;12205;50.600;4.608;2023-10-08T11:47:01;101194.28;;;23.21
23992;BMP280;12205;50.600;4.608;2023-10-08T11:49:37;101197.03;;;23.38
23992;BMP280;12205;50.600;4.608;2023-10-08T11:52:12;101190.53;;;23.48
23992;BMP280;12205;50.600;4.608;2023-10-08T11:54:44;101195.84;;;23.55
23992;BMP280;12205;50.600;4.608;2023-10-08T11:57:14;101189.19;;;23.73
23992;BMP280;12205;50.600;4.608;2023-10-08T11:59:45;101192.53;;;24.09
23992;BMP280;12205;50.600;4.608;2023-10-08T12:02:12;101191.69;;;24.54
23992;BMP280;12205;50.600;4.608;2023-10-08T12:04:42;101188.88;;;25.22
23992;BMP280;12205;50.600;4.608;2023-10-08T12:07:10;101181.41;;;26.05
23992;BMP280;12205;50.600;4.608;2023-10-08T12:09:39;101187.41;;;26.75
23992;BMP280;12205;50.600;4.608;2023-10-08T12:12:08;101179.16;;;27.43
23992;BMP280;12205;50.600;4.608;2023-10-08T12:14:37;101177.31;;;28.05
23992;BMP280;12205;50.600;4.608;2023-10-08T12:17:04;101183.47;;;28.75
23992;BMP280;12205;50.600;4.608;2023-10-08T12:19:37;101177.63;;;29.46
23992;BMP280;12205;50.600;4.608;2023-10-08T12:22:06;101171.91;;;30.23
23992;BMP280;12205;50.600;4.608;2023-10-08T12:24:34;101172.63;;;30.94
23992;BMP280;12205;50.600;4.608;2023-10-08T12:27:01;101162.59;;;31.44
23992;BMP280;12205;50.600;4.608;2023-10-08T12:29:30;101167.38;;;31.69
23992;BMP280;12205;50.600;4.608;2023-10-08T12:31:58;101159.47;;;32.31
23992;BMP280;12205;50.600;4.608;2023-10-08T12:34:26;101153.91;;;32.91
23992;BMP280;12205;50.600;4.608;2023-10-08T12:36:55;101156.50;;;33.34
23992;BMP280;12205;50.600;4.608;2023-10-08T12:39:22;101155.22;;;33.74
23992;BMP280;12205;50.600;4.608;2023-10-08T12:41:54;101156.97;;;33.72
23992;BMP280;12205;50.600;4.608;2023-10-08T12:44:23;101155.94;;;33.97
23992;BMP280;12205;50.600;4.608;2023-10-08T12:46:51;101156.34;;;34.24
23992;BMP280;12205;50.600;4.608;2023-10-08T12:49:18;101161.00;;;34.63
23992;BMP280;12205;50.600;4.608;2023-10-08T12:51:46;101155.22;;;35.32
23992;BMP280;12205;50.600;4.608;2023-10-08T12:54:13;101159.78;;;35.60
23992;BMP280;12205;50.600;4.608;2023-10-08T12:56:47;101156.41;;;35.67
23992;BMP280;12205;50.600;4.608;2023-10-08T12:59:20;101156.25;;;36.27
23992;BMP280;12205;50.600;4.608;2023-10-08T13:01:51;101158.41;;;36.53
23992;BMP280;12205;50.600;4.608;2023-10-08T13:04:20;101155.59;;;36.72
23992;BMP280;12205;50.600;4.608;2023-10-08T13:06:52;101151.72;;;36.94
23992;BMP280;12205;50.600;4.608;2023-10-08T13:09:23;101155.78;;;37.25
23992;BMP280;12205;50.600;4.608;2023-10-08T13:11:52;101145.47;;;37.60
23992;BMP280;12205;50.600;4.608;2023-10-08T13:14:19;101152.53;;;37.88
23992;BMP280;12205;50.600;4.608;2023-10-08T13:16:48;101149.94;;;38.16
23992;BMP280;12205;50.600;4.608;2023-10-08T13:19:21;101144.38;;;38.58
23992;BMP280;12205;50.600;4.608;2023-10-08T13:21:49;101130.94;;;38.98
23992;BMP280;12205;50.600;4.608;2023-10-08T13:24:18;101134.28;;;39.54
23992;BMP280;12205;50.600;4.608;2023-10-08T13:26:45;101127.88;;;39.97
23992;BMP280;12205;50.600;4.608;2023-10-08T13:29:13;101122.56;;;40.38
23992;BMP280;12205;50.600;4.608;2023-10-08T13:31:41;101123.09;;;40.44
23992;BMP280;12205;50.600;4.608;2023-10-08T13:34:08;101121.19;;;40.24
23992;BMP280;12205;50.600;4.608;2023-10-08T13:36:38;101123.09;;;40.52
23992;BMP280;12205;50.600;4.608;2023-10-08T13:39:05;101111.25;;;40.00
23992;BMP280;12205;50.600;4.608;2023-10-08T13:41:35;101109.75;;;39.83
23992;BMP280;12205;50.600;4.608;2023-10-08T13:44:04;101107.16;;;40.08
23992;BMP280;12205;50.600;4.608;2023-10-08T13:46:32;101102.75;;;40.51
23992;BMP280;12205;50.600;4.608;2023-10-08T13:49:02;101105.72;;;40.38
23992;BMP280;12205;50.600;4.608;2023-10-08T13:51:31;101115.44;;;40.52
23992;BMP280;12205;50.600;4.608;2023-10-08T13:54:02;101118.06;;;40.73
23992;BMP280;12205;50.600;4.608;2023-10-08T13:56:33;101115.63;;;40.62
23992;BMP280;12205;50.600;4.608;2023-10-08T13:59:04;101113.19;;;40.66
23992;BMP280;12205;50.600;4.608;2023-10-08T14:01:39;101113.38;;;40.37
23992;BMP280;12205;50.600;4.608;2023-10-08T14:04:09;101117.00;;;39.86
23992;BMP280;12205;50.600;4.608;2023-10-08T14:06:38;101113.72;;;39.52
23992;BMP280;12205;50.600;4.608;2023-10-08T14:09:09;101109.38;;;39.87
23992;BMP280;12205;50.600;4.608;2023-10-08T14:11:38;101109.56;;;39.89
23992;BMP280;12205;50.600;4.608;2023-10-08T14:14:05;101103.44;;;39.98
23992;BMP280;12205;50.600;4.608;2023-10-08T14:16:37;101101.56;;;40.08
23992;BMP280;12205;50.600;4.608;2023-10-08T14:19:08;101105.31;;;40.03
23992;BMP280;12205;50.600;4.608;2023-10-08T14:21:38;101109.03;;;39.98
23992;BMP280;12205;50.600;4.608;2023-10-08T14:24:16;101105.84;;;39.94
23992;BMP280;12205;50.600;4.608;2023-10-08T14:26:44;101118.53;;;39.43